Time;durP1;ratioP1;P1;durP2;ratioP2;P2;SDS_P1;SDS_P2;PMS_P1;PMS_P2;Temp;Humidity;BMP_temperature;BMP_pressure;BME280_temperature;BME280_humidity;BME280_pressure;Samples;Min_cycle;Max_cycle;Signal;HPM_P1;HPM_P2
2022/12/14 00:01:10;;;;;;;17.17;8.68;;;;;;;-3.06;84.16;100464.34;5027275;28;20029;-67
2022/12/14 00:03:36;;;;;;;18.42;9.10;;;;;;;-3.07;84.58;100454.97;5027471;28;20044;-67
2022/12/14 00:06:14;;;;;;;18.67;8.60;;;;;;;-3.07;85.45;100446.41;5025999;28;20248;-67
2022/12/14 00:08:39;;;;;;;17.42;8.02;;;;;;;-3.09;84.91;100441.19;5013962;28;20030;-67
2022/12/14 00:11:05;;;;;;;18.58;8.73;;;;;;;-3.09;85.09;100438.66;5027034;28;20040;-67
2022/12/14 00:13:31;;;;;;;18.25;8.20;;;;;;;-3.10;84.97;100431.81;5026825;28;20030;-67
2022/12/14 00:15:56;;;;;;;17.98;8.73;;;;;;;-3.09;84.97;100433.56;5027035;28;20697;-67
2022/12/14 00:18:21;;;;;;;17.13;8.07;;;;;;;-3.10;85.03;100426.72;5027081;28;20017;-67
2022/12/14 00:20:46;;;;;;;18.20;8.35;;;;;;;-3.09;85.36;100419.94;5026920;28;20028;-67
2022/12/14 00:23:12;;;;;;;19.73;8.18;;;;;;;-3.09;84.76;100425.03;5027139;28;20257;-67
2022/12/14 00:25:37;;;;;;;18.77;8.88;;;;;;;-3.08;85.20;100419.19;5026705;28;20022;-67
2022/12/14 00:28:02;;;;;;;19.90;8.38;;;;;;;-3.07;85.01;100420.91;5026478;28;20087;-67
2022/12/14 00:30:27;;;;;;;17.02;7.90;;;;;;;-3.09;84.87;100420.81;5026633;28;20053;-67
2022/12/14 00:32:53;;;;;;;18.65;8.38;;;;;;;-3.09;84.47;100427.59;5026584;28;20020;-67
2022/12/14 00:35:18;;;;;;;18.15;8.57;;;;;;;-3.11;84.48;100422.38;5026654;28;20049;-67
2022/12/14 00:37:44;;;;;;;18.95;8.73;;;;;;;-3.13;84.06;100411.19;5026802;28;20017;-64
2022/12/14 00:40:10;;;;;;;18.15;7.85;;;;;;;-3.15;83.60;100413.63;5026674;28;20022;-64
2022/12/14 00:42:36;;;;;;;18.00;8.05;;;;;;;-3.15;84.20;100408.53;5026440;28;20033;-64
2022/12/14 00:45:03;;;;;;;16.90;8.27;;;;;;;-3.13;84.24;100408.63;5026328;28;20107;-64
2022/12/14 00:47:28;;;;;;;18.08;8.35;;;;;;;-3.14;83.35;100404.34;5026238;28;20029;-65
2022/12/14 00:49:53;;;;;;;19.00;8.07;;;;;;;-3.15;83.71;100398.31;5026473;28;20022;-64
2022/12/14 00:52:19;;;;;;;17.65;8.55;;;;;;;-3.16;83.46;100388.94;5026385;28;20323;-64
2022/12/14 00:54:44;;;;;;;17.67;8.48;;;;;;;-3.17;83.43;100383.72;5026298;28;20029;-65
2022/12/14 00:57:10;;;;;;;19.13;8.55;;;;;;;-3.18;83.51;100376.84;5058170;28;20033;-65
2022/12/14 00:59:35;;;;;;;20.85;9.32;;;;;;;-3.19;83.13;100372.53;5026075;28;20025;-64
2022/12/14 01:02:00;;;;;;;19.80;9.15;;;;;;;-3.22;83.63;100378.28;5026179;28;20092;-64
2022/12/14 01:04:26;;;;;;;18.77;8.45;;;;;;;-3.24;83.35;100371.34;5024948;28;20026;-64
2022/12/14 01:06:52;;;;;;;17.48;8.27;;;;;;;-3.25;83.65;100379.75;5015931;28;20090;-67
2022/12/14 01:09:19;;;;;;;20.90;8.75;;;;;;;-3.26;83.52;100372.88;5022679;28;20021;-67
2022/12/14 01:11:44;;;;;;;18.98;8.32;;;;;;;-3.27;84.08;100372.00;5025875;28;20021;-67
2022/12/14 01:14:12;;;;;;;16.33;8.30;;;;;;;-3.28;82.90;100372.75;5025817;28;20121;-67
2022/12/14 01:16:38;;;;;;;18.25;8.65;;;;;;;-3.33;83.51;100372.44;5026000;28;20021;-67
2022/12/14 01:19:04;;;;;;;18.00;8.63;;;;;;;-3.34;83.39;100374.88;5025832;28;20212;-67
2022/12/14 01:21:29;;;;;;;17.23;8.65;;;;;;;-3.33;83.34;100369.91;5025706;28;20082;-67
2022/12/14 01:23:58;;;;;;;19.73;8.75;;;;;;;-3.30;83.78;100365.78;5025679;28;20173;-67
2022/12/14 01:26:25;;;;;;;19.55;8.35;;;;;;;-3.32;83.75;100361.50;5025509;28;20017;-67
2022/12/14 01:28:56;;;;;;;19.17;8.23;;;;;;;-3.32;83.93;100355.47;5026040;28;20033;-67
2022/12/14 01:31:25;;;;;;;17.50;8.45;;;;;;;-3.30;83.53;100360.69;5025745;28;20018;-67
2022/12/14 01:33:51;;;;;;;17.13;8.43;;;;;;;-3.31;83.26;100359.81;5025420;28;20230;-67
2022/12/14 01:36:25;;;;;;;17.10;8.13;;;;;;;-3.31;83.58;100362.34;5025578;28;20260;-65
2022/12/14 01:38:56;;;;;;;18.60;7.80;;;;;;;-3.33;83.29;100358.84;5025462;28;20033;-64
2022/12/14 01:41:25;;;;;;;18.65;9.07;;;;;;;-3.37;83.71;100355.16;5025470;28;20308;-65
2022/12/14 01:43:52;;;;;;;18.35;8.55;;;;;;;-3.38;83.78;100355.94;5025238;28;20299;-64
2022/12/14 01:46:42;;;;;;;19.73;8.57;;;;;;;-3.40;83.05;100360.03;5025077;28;20018;-64
2022/12/14 01:49:33;;;;;;;17.25;8.10;;;;;;;-3.41;83.65;100353.16;5025201;28;20033;-65
2022/12/14 01:52:15;;;;;;;17.77;8.00;;;;;;;-3.43;83.31;100364.94;5025141;28;20033;-64
2022/12/14 01:54:47;;;;;;;19.50;8.90;;;;;;;-3.44;83.56;100357.19;5025111;28;20022;-64
2022/12/14 01:57:16;;;;;;;18.58;8.25;;;;;;;-3.45;83.36;100358.81;5024912;28;20077;-65
2022/12/14 01:59:44;;;;;;;17.40;8.60;;;;;;;-3.47;83.68;100355.28;5023774;28;20089;-65
2022/12/14 02:02:11;;;;;;;19.52;8.65;;;;;;;-3.47;83.74;100352.75;5024778;28;20022;-65
2022/12/14 02:04:44;;;;;;;18.10;8.65;;;;;;;-3.48;83.85;100347.53;5024847;28;20172;-65
2022/12/14 02:07:13;;;;;;;16.48;7.82;;;;;;;-3.48;83.78;100345.00;5011223;28;20021;-64
2022/12/14 02:09:42;;;;;;;18.95;8.80;;;;;;;-3.47;83.96;100352.75;5024785;28;20052;-64
2022/12/14 02:12:20;;;;;;;16.40;8.07;;;;;;;-3.47;83.38;100345.09;5024665;28;20224;-64
2022/12/14 02:14:46;;;;;;;17.45;8.20;;;;;;;-3.50;83.79;100338.13;5024547;28;20316;-64
2022/12/14 02:17:13;;;;;;;15.73;7.63;;;;;;;-3.53;83.48;100329.41;5024723;28;20028;-65
2022/12/14 02:19:42;;;;;;;16.38;8.50;;;;;;;-3.55;83.92;100338.56;5024767;28;20089;-64
2022/12/14 02:22:17;;;;;;;18.58;8.45;;;;;;;-3.54;83.73;100337.81;5024696;28;20053;-64
2022/12/14 02:25:06;;;;;;;16.55;8.43;;;;;;;-3.55;83.35;100333.47;5024687;28;20033;-65
2022/12/14 02:27:38;;;;;;;;;;;;;;;-3.50;84.79;100337.25;5023783;28;20180;-64
2022/12/14 02:30:13;;;;;;;17.15;7.93;;;;;;;-3.56;83.80;100329.19;5024582;28;19976;-65
2022/12/14 02:32:47;;;;;;;17.48;7.82;;;;;;;-3.57;83.67;100324.84;5023462;28;20025;-65
2022/12/14 02:35:25;;;;;;;17.00;8.13;;;;;;;-3.60;84.12;100322.97;5024331;28;20268;-64
2022/12/14 02:38:23;;;;;;;18.55;8.63;;;;;;;-3.62;84.29;100321.06;5024472;28;20021;-67
2022/12/14 02:40:59;;;;;;;15.77;8.23;;;;;;;-3.61;84.36;100327.94;5024599;28;20220;-67
2022/12/14 02:44:03;;;;;;;16.63;8.10;;;;;;;-3.65;84.03;100329.38;5024188;28;20315;-67
2022/12/14 02:46:38;;;;;;;17.48;8.13;;;;;;;-3.71;84.21;100322.22;4963544;29;20023;-67
2022/12/14 02:49:10;;;;;;;18.73;8.70;;;;;;;-3.71;84.70;100319.66;5016823;28;20173;-67
2022/12/14 02:51:54;;;;;;;20.25;9.02;;;;;;;-3.70;84.48;100323.97;5024150;28;20024;-67
2022/12/14 02:54:26;;;;;;;19.88;8.27;;;;;;;-3.70;84.52;100318.88;5024379;28;20085;-67
2022/12/14 02:57:29;;;;;;;20.27;8.82;;;;;;;-3.68;84.71;100312.25;5024058;28;20271;-67
2022/12/14 02:59:59;;;;;;;20.35;8.73;;;;;;;-3.67;83.86;100314.00;5024044;28;20188;-67
2022/12/14 03:02:25;;;;;;;17.80;8.75;;;;;;;-3.68;84.29;100304.59;5023977;28;20071;-67
2022/12/14 03:04:51;;;;;;;16.95;8.23;;;;;;;-3.68;84.39;100307.16;5020024;28;20022;-67
2022/12/14 03:07:25;;;;;;;15.77;8.05;;;;;;;-3.67;84.72;100315.66;5014729;28;20017;-65
2022/12/14 03:09:51;;;;;;;19.33;8.50;;;;;;;-3.68;84.60;100317.34;5023916;28;20324;-64
2022/12/14 03:12:19;;;;;;;18.80;7.93;;;;;;;-3.67;84.76;100319.09;5023979;28;20022;-64
2022/12/14 03:14:51;;;;;;;18.15;8.63;;;;;;;-3.65;84.35;100320.88;5023988;28;20029;-64
2022/12/14 03:17:20;;;;;;;15.02;7.70;;;;;;;-3.62;85.13;100321.97;5023904;28;20211;-65
2022/12/14 03:20:08;;;;;;;17.75;9.18;;;;;;;-3.57;84.69;100317.22;5023849;28;20017;-64
2022/12/14 03:22:39;;;;;;;17.13;8.57;;;;;;;-3.59;83.92;100309.47;5023732;28;20063;-64
2022/12/14 03:25:11;;;;;;;17.55;8.18;;;;;;;-3.59;84.69;100300.91;5023792;28;20022;-65
2022/12/14 03:27:43;;;;;;;16.00;8.10;;;;;;;-3.57;84.34;100305.34;5025682;28;20108;-65
2022/12/14 03:30:13;;;;;;;18.15;8.45;;;;;;;-3.55;84.26;100292.72;5022482;28;20049;-64
2022/12/14 03:32:44;;;;;;;19.17;8.77;;;;;;;-3.55;84.90;100287.63;5012576;28;20041;-65
2022/12/14 03:35:16;;;;;;;18.02;8.50;;;;;;;-3.55;84.86;100277.44;5021684;28;20042;-64
2022/12/14 03:37:53;;;;;;;15.85;8.38;;;;;;;-3.55;84.72;100267.25;5024327;28;20021;-67
2022/12/14 03:40:29;;;;;;;19.70;8.55;;;;;;;-3.55;84.80;100274.91;5025322;28;20021;-67
2022/12/14 03:43:23;;;;;;;18.63;9.13;;;;;;;-3.53;85.11;100271.69;5027410;28;20276;-67
2022/12/14 03:46:12;;;;;;;18.60;8.38;;;;;;;-3.51;84.64;100264.16;5027001;28;20057;-67
2022/12/14 03:48:50;;;;;;;17.17;8.15;;;;;;;-3.52;84.69;100268.38;5027569;28;20025;-67
2022/12/14 03:51:23;;;;;;;15.73;8.65;;;;;;;-3.53;85.35;100273.38;5027665;28;20049;-67
2022/12/14 03:53:55;;;;;;;23.58;8.52;;;;;;;-3.52;85.32;100270.03;5027585;28;20025;-67
2022/12/14 03:56:37;;;;;;;20.17;8.98;;;;;;;-3.50;84.95;100266.81;5027213;28;20017;-67
2022/12/14 03:59:11;;;;;;;16.83;8.27;;;;;;;-3.49;84.57;100267.69;5027173;28;20014;-67
2022/12/14 04:01:54;;;;;;;18.65;9.18;;;;;;;-3.50;85.07;100263.41;5027362;28;20021;-67
2022/12/14 04:04:34;;;;;;;17.67;8.38;;;;;;;-3.52;85.16;100250.56;5022045;28;20082;-67
2022/12/14 04:07:29;;;;;;;22.13;9.07;;;;;;;-3.50;85.29;100250.66;5021501;28;20010;-64
2022/12/14 04:10:00;;;;;;;20.02;9.07;;;;;;;-3.53;85.04;100253.00;5027259;28;20017;-65
2022/12/14 04:21:27;;;;;;;16.73;8.45;;;;;;;-3.51;84.78;100233.59;5026811;28;20052;-64
2022/12/14 04:26:59;;;;;;;16.88;8.30;;;;;;;-3.52;85.54;100226.72;5026774;28;20112;-65
2022/12/14 04:32:24;;;;;;;;;;;;;;;-3.44;85.84;100224.75;5027062;28;20060;-64
2022/12/14 04:34:55;;;;;;;16.52;7.90;;;;;;;-3.47;84.83;100225.41;5026705;28;19972;-64
2022/12/14 04:37:24;;;;;;;19.73;8.88;;;;;;;-3.48;85.13;100218.53;5026669;28;20148;-67
2022/12/14 04:39:57;;;;;;;20.52;9.48;;;;;;;-3.50;84.74;100215.88;5026783;28;20064;-67
2022/12/14 04:42:29;;;;;;;18.75;8.45;;;;;;;-3.51;85.18;100221.75;5026363;28;20014;-67
2022/12/14 04:45:01;;;;;;;16.98;9.00;;;;;;;-3.51;84.80;100210.69;5026313;28;20057;-67
2022/12/14 04:47:31;;;;;;;17.88;8.90;;;;;;;-3.50;85.25;100209.91;5026376;28;20022;-67
2022/12/14 04:50:13;;;;;;;20.10;8.57;;;;;;;-3.50;84.41;100205.69;5026303;28;20079;-67
2022/12/14 04:52:44;;;;;;;17.52;8.60;;;;;;;-3.52;84.72;100208.91;5026346;28;20022;-67
2022/12/14 04:55:09;;;;;;;19.00;8.35;;;;;;;-3.50;85.22;100204.81;5026216;28;20021;-67
2022/12/14 04:57:48;;;;;;;18.73;8.57;;;;;;;-3.49;85.26;100206.56;5026485;28;20006;-67
2022/12/14 05:00:14;;;;;;;17.88;8.57;;;;;;;-3.50;85.22;100204.81;5026219;28;20014;-67
2022/12/14 05:03:12;;;;;;;19.25;8.77;;;;;;;-3.49;84.90;100196.38;5026246;28;20315;-67
2022/12/14 05:06:13;;;;;;;16.85;8.73;;;;;;;-3.49;84.83;100196.38;5018034;28;20049;-67
2022/12/14 05:09:10;;;;;;;16.17;8.45;;;;;;;-3.50;84.88;100198.06;5026010;28;20018;-67
2022/12/14 05:12:14;;;;;;;18.50;8.88;;;;;;;-3.48;84.58;100197.28;5025886;28;20319;-67
2022/12/14 05:14:49;;;;;;;19.00;8.77;;;;;;;-3.47;84.64;100193.97;5025957;28;20032;-67
2022/12/14 05:17:15;;;;;;;17.15;8.40;;;;;;;-3.48;85.03;100193.06;5026008;28;20075;-67
2022/12/14 05:19:48;;;;;;;19.40;8.63;;;;;;;-3.46;84.86;100185.53;5025759;28;20022;-67
2022/12/14 05:22:14;;;;;;;18.33;8.15;;;;;;;-3.44;84.89;100184.00;5025836;28;20336;-67
2022/12/14 05:24:39;;;;;;;19.95;9.05;;;;;;;-3.44;84.57;100184.88;5025732;28;20017;-67
2022/12/14 05:27:05;;;;;;;16.63;8.35;;;;;;;-3.45;85.10;100183.09;5025628;28;20069;-67
2022/12/14 05:29:30;;;;;;;20.30;8.88;;;;;;;-3.43;84.10;100184.09;5025638;28;20168;-67
2022/12/14 05:31:55;;;;;;;17.92;8.23;;;;;;;-3.42;84.19;100179.88;5025591;28;20021;-67
2022/12/14 05:34:21;;;;;;;18.05;8.57;;;;;;;-3.44;84.51;100178.91;5025398;28;20014;-67
2022/12/14 05:36:47;;;;;;;18.48;8.90;;;;;;;-3.44;84.31;100184.88;5025388;28;20017;-67
2022/12/14 05:39:13;;;;;;;19.40;9.27;;;;;;;-3.44;84.21;100179.78;5025519;28;20018;-67
2022/12/14 05:41:38;;;;;;;17.50;8.68;;;;;;;-3.43;84.43;100181.53;5025392;28;20308;-67
2022/12/14 05:44:06;;;;;;;18.45;8.85;;;;;;;-3.42;84.75;100179.88;5025265;28;20065;-67
2022/12/14 05:46:31;;;;;;;20.20;9.18;;;;;;;-3.42;84.23;100182.41;5025219;28;20018;-67
2022/12/14 05:48:56;;;;;;;17.80;8.90;;;;;;;-3.42;84.36;100178.19;5025405;28;20026;-67
2022/12/14 05:51:22;;;;;;;21.67;9.20;;;;;;;-3.43;84.38;100173.00;5025049;28;20332;-67
2022/12/14 05:53:47;;;;;;;19.73;9.27;;;;;;;-3.44;84.55;100177.22;5025436;28;20025;-67
2022/12/14 05:56:13;;;;;;;18.98;9.02;;;;;;;-3.43;84.76;100180.66;5025051;28;20014;-67
2022/12/14 05:58:38;;;;;;;19.83;9.13;;;;;;;-3.43;84.16;100181.53;5025124;28;20024;-67
2022/12/14 06:01:06;;;;;;;18.75;8.80;;;;;;;-3.43;84.80;100179.00;5025152;28;20311;-67
2022/12/14 06:03:32;;;;;;;17.95;8.68;;;;;;;-3.43;84.99;100179.00;5025123;28;20278;-67
2022/12/14 06:06:06;;;;;;;17.90;8.85;;;;;;;-3.42;84.96;100168.00;5022077;28;20014;-67
2022/12/14 06:08:34;;;;;;;19.10;9.35;;;;;;;-3.42;84.77;100170.56;5023712;28;20050;-67
2022/12/14 06:11:13;;;;;;;17.80;9.73;;;;;;;-3.41;84.61;100168.91;5024801;28;20014;-67
2022/12/14 06:13:40;;;;;;;18.15;8.80;;;;;;;-3.42;85.17;100162.03;5025287;28;20045;-67
2022/12/14 06:16:23;;;;;;;18.90;8.70;;;;;;;-3.41;85.14;100159.59;5024668;28;20048;-67
2022/12/14 06:18:50;;;;;;;21.15;9.88;;;;;;;-3.40;85.03;100155.41;5024799;28;20018;-67
2022/12/14 06:21:17;;;;;;;19.45;9.38;;;;;;;-3.40;84.58;100160.50;5023670;28;20053;-67
2022/12/14 06:23:43;;;;;;;18.92;9.10;;;;;;;-3.42;84.87;100157.81;5024804;28;20021;-67
2022/12/14 06:26:09;;;;;;;18.65;9.20;;;;;;;-3.40;85.07;100160.50;5024466;28;20160;-67
2022/12/14 06:28:35;;;;;;;17.27;9.18;;;;;;;-3.39;85.10;100167.34;5025000;28;20022;-67
2022/12/14 06:31:01;;;;;;;22.00;10.00;;;;;;;-3.39;85.34;100159.72;5024491;28;20267;-67
2022/12/14 06:33:26;;;;;;;19.92;9.23;;;;;;;-3.40;85.18;100163.94;5024703;28;20044;-67
2022/12/14 06:35:52;;;;;;;19.35;9.23;;;;;;;-3.39;84.91;100158.06;5024569;28;20014;-67
2022/12/14 06:38:17;;;;;;;19.58;9.63;;;;;;;-3.38;84.87;100158.94;5024460;28;20017;-67
2022/12/14 06:40:43;;;;;;;22.23;9.18;;;;;;;-3.39;85.10;100164.78;5024431;28;20027;-67
2022/12/14 06:43:08;;;;;;;18.75;8.52;;;;;;;-3.41;85.09;100169.78;5024413;28;20049;-67
2022/12/14 06:45:34;;;;;;;18.08;9.30;;;;;;;-3.43;84.65;100166.28;5024290;28;20038;-67
2022/12/14 06:48:00;;;;;;;18.70;9.30;;;;;;;-3.43;85.30;100166.28;5024181;28;20045;-67
2022/12/14 06:50:28;;;;;;;18.30;8.48;;;;;;;-3.42;85.03;100178.19;5024114;28;20021;-67
2022/12/14 06:52:56;;;;;;;19.30;9.63;;;;;;;-3.40;85.03;100173.25;5024338;28;20056;-67
2022/12/14 06:55:23;;;;;;;18.98;9.07;;;;;;;-3.41;85.23;100169.78;5024513;28;20260;-67
2022/12/14 06:57:50;;;;;;;19.23;9.45;;;;;;;-3.39;85.29;100174.97;5024135;28;20045;-67
2022/12/14 07:00:20;;;;;;;18.38;9.05;;;;;;;-3.39;85.32;100177.53;5024076;28;20018;-67
2022/12/14 07:02:46;;;;;;;22.95;9.82;;;;;;;-3.39;84.81;100183.53;5023466;28;20056;-67
2022/12/14 07:05:12;;;;;;;19.45;9.20;;;;;;;-3.39;85.32;100173.34;5010698;28;20181;-67
2022/12/14 07:07:38;;;;;;;20.33;9.88;;;;;;;-3.39;85.34;100177.53;5023995;28;20223;-65
2022/12/14 07:10:05;;;;;;;21.40;10.30;;;;;;;-3.42;84.87;100188.38;5024005;28;20064;-65
2022/12/14 07:12:30;;;;;;;19.83;9.80;;;;;;;-3.42;84.95;100178.19;5023857;28;20089;-65
2022/12/14 07:14:56;;;;;;;20.10;9.88;;;;;;;-3.42;84.65;100175.66;5023870;28;20021;-64
2022/12/14 07:17:21;;;;;;;21.73;10.15;;;;;;;-3.41;84.95;100177.44;5023700;28;20025;-64
2022/12/14 07:19:46;;;;;;;21.10;9.70;;;;;;;-3.41;85.25;100179.97;5023766;28;20248;-64
2022/12/14 07:22:12;;;;;;;29.10;12.98;;;;;;;-3.42;85.31;100180.75;5023647;28;20029;-64
2022/12/14 07:24:38;;;;;;;48.42;21.13;;;;;;;-3.43;85.44;100181.53;5023913;28;20025;-65
2022/12/14 07:27:03;;;;;;;69.20;28.85;;;;;;;-3.42;85.20;100184.97;5023584;28;20025;-64
2022/12/14 07:29:29;;;;;;;62.50;27.48;;;;;;;-3.45;84.61;100183.09;5023748;28;20033;-65
2022/12/14 07:31:54;;;;;;;43.40;20.25;;;;;;;-3.44;85.00;100184.00;5023759;28;20049;-65
2022/12/14 07:34:19;;;;;;;44.22;19.73;;;;;;;-3.46;85.09;100196.63;5023751;28;20060;-65
2022/12/14 07:36:48;;;;;;;36.28;16.95;;;;;;;-3.48;84.87;100185.44;5022679;28;20156;-64
2022/12/14 07:39:14;;;;;;;29.38;15.18;;;;;;;-3.47;85.20;100189.75;5023709;28;20036;-65
2022/12/14 07:41:39;;;;;;;29.02;14.18;;;;;;;-3.48;85.19;100187.09;5023683;28;20018;-65
2022/12/14 07:44:05;;;;;;;26.05;12.13;;;;;;;-3.51;84.67;100191.19;5023672;28;20042;-65
2022/12/14 07:46:30;;;;;;;25.38;11.15;;;;;;;-3.53;84.71;100194.44;5023780;28;20018;-65
2022/12/14 07:48:57;;;;;;;24.48;12.23;;;;;;;-3.54;84.86;100190.97;5022467;28;20030;-66
2022/12/14 07:51:31;;;;;;;29.85;11.70;;;;;;;-3.53;84.66;100189.34;5023633;28;20045;-65
2022/12/14 07:54:00;;;;;;;25.95;12.48;;;;;;;-3.57;84.28;100193.31;5023715;28;20028;-65
2022/12/14 07:56:28;;;;;;;26.60;12.80;;;;;;;-3.59;84.65;100186.34;5023557;28;20141;-65
2022/12/14 07:58:55;;;;;;;25.90;11.70;;;;;;;-3.62;84.67;100194.69;5023487;28;20028;-65
2022/12/14 08:01:26;;;;;;;24.85;11.75;;;;;;;-3.62;84.85;100193.78;5023412;28;20041;-65
2022/12/14 08:03:59;;;;;;;26.48;11.60;;;;;;;-3.64;84.14;100197.88;5013856;28;20014;-65
2022/12/14 08:06:27;;;;;;;21.63;10.57;;;;;;;-3.67;84.46;100207.06;5020689;28;20045;-65
2022/12/14 08:08:54;;;;;;;22.30;10.98;;;;;;;-3.70;84.46;100194.13;5023270;28;20030;-65
2022/12/14 08:11:21;;;;;;;24.45;11.38;;;;;;;-3.71;84.73;100200.00;5055175;28;20235;-65
2022/12/14 08:13:50;;;;;;;21.33;10.90;;;;;;;-3.72;84.81;100202.41;5025284;28;20380;-65
2022/12/14 08:16:16;;;;;;;21.42;10.82;;;;;;;-3.73;84.81;100200.69;5026849;28;20026;-64
2022/12/14 08:18:42;;;;;;;20.27;10.52;;;;;;;-3.73;84.94;100206.66;5058761;28;20006;-64
2022/12/14 08:21:10;;;;;;;24.00;11.27;;;;;;;-3.73;84.20;100204.09;5026783;28;20010;-65
2022/12/14 08:23:36;;;;;;;21.73;10.70;;;;;;;-3.73;84.61;100210.88;5026992;28;20018;-65
2022/12/14 08:26:04;;;;;;;22.38;10.73;;;;;;;-3.74;84.93;100220.13;5026897;28;20018;-65
2022/12/14 08:28:30;;;;;;;22.88;11.15;;;;;;;-3.73;84.93;100218.50;5026808;28;20152;-65
2022/12/14 08:30:56;;;;;;;20.92;10.32;;;;;;;-3.73;84.74;100213.41;5026793;28;20046;-65
2022/12/14 08:33:22;;;;;;;16.83;9.32;;;;;;;-3.73;84.98;100216.81;5026768;28;20026;-65
2022/12/14 08:35:48;;;;;;;20.20;10.02;;;;;;;-3.73;85.23;100211.72;5026668;28;20017;-65
2022/12/14 08:38:14;;;;;;;18.08;8.90;;;;;;;-3.75;85.02;100212.41;5025367;28;20006;-65
2022/12/14 08:40:39;;;;;;;22.92;10.75;;;;;;;-3.76;85.07;100220.84;5026570;28;20252;-65
2022/12/14 08:43:06;;;;;;;22.10;9.57;;;;;;;-3.77;85.19;100222.47;5025404;28;20041;-65
2022/12/14 08:45:32;;;;;;;20.10;9.20;;;;;;;-3.79;85.23;100226.59;5026464;28;20283;-65
2022/12/14 08:47:58;;;;;;;18.60;8.93;;;;;;;-3.79;84.88;100216.41;5026426;28;20282;-65
2022/12/14 08:50:24;;;;;;;20.55;10.50;;;;;;;-3.80;84.75;100214.63;5026256;28;20020;-65
2022/12/14 08:52:49;;;;;;;24.67;10.30;;;;;;;-3.81;84.91;100217.06;5026332;28;20081;-65
2022/12/14 08:55:15;;;;;;;21.25;10.32;;;;;;;-3.82;84.83;100208.56;5026158;28;20018;-65
2022/12/14 08:57:40;;;;;;;23.88;9.98;;;;;;;-3.83;84.81;100213.53;5026236;28;20014;-65
2022/12/14 09:00:08;;;;;;;19.98;11.23;;;;;;;-3.86;84.66;100212.53;5025086;28;20026;-65
2022/12/14 09:02:34;;;;;;;20.15;10.57;;;;;;;-3.85;84.35;100213.44;5026142;28;20248;-65
2022/12/14 09:04:59;;;;;;;20.25;9.98;;;;;;;-3.86;84.53;100219.28;5017993;28;20041;-65
2022/12/14 09:07:24;;;;;;;23.58;10.10;;;;;;;-3.86;84.34;100219.28;5026023;28;20100;-67
2022/12/14 09:09:49;;;;;;;19.45;9.73;;;;;;;-3.85;85.21;100221.06;5026059;28;20179;-67
2022/12/14 09:12:15;;;;;;;21.33;10.70;;;;;;;-3.83;84.04;100222.06;5025847;28;20520;-67
2022/12/14 09:14:40;;;;;;;21.90;11.32;;;;;;;-3.83;84.74;100229.69;5025943;28;20222;-67
2022/12/14 09:17:06;;;;;;;21.30;10.57;;;;;;;-3.81;83.97;100229.78;5025815;28;20077;-67
2022/12/14 09:19:31;;;;;;;21.95;10.65;;;;;;;-3.81;84.36;100228.13;5017459;28;20176;-67
2022/12/14 09:21:57;;;;;;;23.20;10.60;;;;;;;-3.79;84.14;100239.31;5020894;28;20021;-67
2022/12/14 09:24:23;;;;;;;23.85;10.75;;;;;;;-3.77;84.48;100234.31;5025438;28;20025;-68
2022/12/14 09:26:50;;;;;;;19.92;10.32;;;;;;;-3.76;84.20;100236.97;5025389;28;20255;-67
2022/12/14 09:29:18;;;;;;;22.38;9.98;;;;;;;-3.75;84.83;100243.84;5025621;28;20025;-67
2022/12/14 09:31:43;;;;;;;24.55;11.10;;;;;;;-3.74;84.26;100235.41;5025634;28;20018;-67
2022/12/14 09:34:09;;;;;;;21.55;10.35;;;;;;;-3.74;84.72;100243.06;5025342;28;20236;-67
2022/12/14 09:36:35;;;;;;;22.80;11.25;;;;;;;-3.73;84.81;100236.31;5025569;28;20076;-67
2022/12/14 09:39:00;;;;;;;23.95;11.75;;;;;;;-3.71;84.14;100245.84;5025675;28;20026;-68
2022/12/14 09:41:35;;;;;;;25.77;11.82;;;;;;;-3.68;84.77;100240.06;5025612;28;20022;-67
2022/12/14 09:44:12;;;;;;;25.17;11.73;;;;;;;-3.67;84.40;100237.63;5025595;28;20267;-67
2022/12/14 09:47:09;;;;;;;26.08;11.55;;;;;;;-3.61;84.68;100233.75;5023873;28;20018;-67
2022/12/14 09:49:47;;;;;;;27.00;11.57;;;;;;;-3.61;84.56;100229.53;5025246;28;20204;-67
2022/12/14 09:52:20;;;;;;;23.08;11.52;;;;;;;-3.60;84.48;100228.75;5024104;28;20029;-67
2022/12/14 09:54:47;;;;;;;22.90;11.20;;;;;;;-3.57;84.05;100230.63;5025363;28;20026;-67
2022/12/14 09:57:19;;;;;;;20.67;10.82;;;;;;;-3.54;83.86;100235.94;5025110;28;20025;-67
2022/12/14 09:59:44;;;;;;;21.52;10.57;;;;;;;-3.52;84.35;100236.91;5024964;28;20045;-68
2022/12/14 10:02:25;;;;;;;20.35;10.15;;;;;;;-3.49;84.42;100237.13;5018658;28;20025;-68
2022/12/14 10:05:11;;;;;;;18.55;9.65;;;;;;;-3.48;84.44;100233.81;5019967;28;20164;-68
2022/12/14 10:08:13;;;;;;;22.27;9.80;;;;;;;-3.46;84.46;100239.00;5025066;28;20025;-65
2022/12/14 10:10:54;;;;;;;21.00;10.25;;;;;;;-3.45;84.67;100230.59;5024907;28;20168;-65
2022/12/14 10:13:39;;;;;;;20.55;9.98;;;;;;;-3.43;83.74;100221.38;5024656;28;20059;-65
2022/12/14 10:16:17;;;;;;;20.40;8.70;;;;;;;-3.41;83.55;100215.63;5024837;28;20029;-65
2022/12/14 10:18:48;;;;;;;19.60;9.30;;;;;;;-3.39;83.39;100218.28;5024866;28;20183;-65
2022/12/14 10:21:17;;;;;;;18.00;9.70;;;;;;;-3.37;82.68;100224.38;5024660;28;20109;-65
2022/12/14 10:23:54;;;;;;;22.10;9.73;;;;;;;-3.34;83.27;100228.00;5024810;28;20256;-65
2022/12/14 10:26:22;;;;;;;20.98;9.27;;;;;;;-3.32;83.08;100231.56;5024665;28;20218;-65
2022/12/14 10:28:59;;;;;;;23.08;10.63;;;;;;;-3.28;83.86;100231.78;5024615;28;20276;-65
2022/12/14 10:31:34;;;;;;;18.13;9.15;;;;;;;-3.26;82.95;100236.16;5024747;28;20069;-65
2022/12/14 10:34:14;;;;;;;18.17;9.35;;;;;;;-3.23;83.08;100228.78;5024628;28;20215;-64
2022/12/14 10:36:50;;;;;;;22.23;9.93;;;;;;;-3.19;83.26;100232.41;5023149;28;20010;-65
2022/12/14 10:39:27;;;;;;;21.25;10.20;;;;;;;-3.17;82.59;100235.94;5024454;28;20018;-65
2022/12/14 10:42:27;;;;;;;22.85;10.10;;;;;;;-3.13;82.83;100239.56;5024470;28;20025;-65
2022/12/14 10:45:23;;;;;;;19.65;9.18;;;;;;;-3.09;83.15;100234.78;5024190;28;20196;-65
2022/12/14 10:48:10;;;;;;;19.02;9.18;;;;;;;-3.07;82.15;100232.34;5024219;28;20018;-65
2022/12/14 10:50:49;;;;;;;21.10;9.75;;;;;;;-3.05;82.96;100235.91;5023163;28;20013;-65
2022/12/14 10:53:18;;;;;;;17.83;9.57;;;;;;;-3.03;83.24;100245.38;5024083;28;20272;-65
2022/12/14 10:55:45;;;;;;;;;;;;;;;-2.93;83.62;100238.38;5024982;28;20045;-65
2022/12/14 10:58:11;;;;;;;20.92;9.38;;;;;;;-2.94;82.86;100240.06;5024252;28;19921;-65
2022/12/14 11:00:36;;;;;;;22.70;9.57;;;;;;;-2.91;82.52;100235.16;5024312;28;20232;-65
2022/12/14 11:03:08;;;;;;;17.70;9.23;;;;;;;-2.89;81.83;100232.72;5010631;28;20323;-65
2022/12/14 11:05:41;;;;;;;18.70;9.18;;;;;;;-2.85;81.73;100229.59;5024438;28;20028;-65
2022/12/14 11:08:07;;;;;;;19.95;9.48;;;;;;;-2.84;81.63;100231.34;5023880;28;20275;-67
2022/12/14 11:10:35;;;;;;;23.67;9.80;;;;;;;-2.82;81.39;100235.78;5024170;28;20021;-67
2022/12/14 11:13:04;;;;;;;21.58;10.25;;;;;;;-2.81;82.17;100242.66;5023875;28;20197;-67
2022/12/14 11:15:39;;;;;;;20.77;10.30;;;;;;;-2.77;82.65;100242.84;5023835;28;20272;-68
2022/12/14 11:18:16;;;;;;;19.40;9.35;;;;;;;-2.74;82.22;100240.50;5023936;28;20014;-67
2022/12/14 11:20:55;;;;;;;19.95;9.30;;;;;;;-2.71;82.15;100228.84;5023773;28;20022;-67
2022/12/14 11:23:23;;;;;;;19.83;10.30;;;;;;;-2.70;81.38;100229.72;5023710;28;20014;-67
2022/12/14 11:25:53;;;;;;;20.75;10.05;;;;;;;-2.68;81.15;100234.16;5023702;28;20080;-67
2022/12/14 11:28:38;;;;;;;19.95;9.90;;;;;;;-2.66;80.66;100234.25;5023601;28;20024;-67
2022/12/14 11:31:09;;;;;;;21.63;9.77;;;;;;;-2.65;81.32;100228.34;5023674;28;20033;-67
2022/12/14 11:33:38;;;;;;;20.50;9.20;;;;;;;-2.63;79.82;100230.22;5023644;28;20045;-67
2022/12/14 11:36:05;;;;;;;19.88;9.43;;;;;;;-2.59;81.18;100238.06;5023685;28;20085;-67
2022/12/14 11:38:31;;;;;;;18.88;9.57;;;;;;;-2.58;81.65;100234.75;5023631;28;20021;-67
2022/12/14 11:40:59;;;;;;;21.85;9.82;;;;;;;-2.56;81.41;100240.81;5023704;28;20101;-67
2022/12/14 11:43:34;;;;;;;21.25;9.82;;;;;;;-2.53;80.76;100233.41;5023620;28;20014;-67
2022/12/14 11:46:00;;;;;;;21.90;10.52;;;;;;;-2.50;80.65;100228.50;5023565;28;20041;-67
2022/12/14 11:48:27;;;;;;;20.23;9.93;;;;;;;-2.48;80.39;100229.47;5025152;28;20021;-67